Chapel Hill, NC (27514)

05:08 EDT le 02 septembre 2014 (GMT -0400)
Cosgrove Hill | Change Station
CLOSE
Current Station
Stations météorologiques personnelles
Location: Chapel Hill, NC
Altitude: 325 ft
Stations météo à proximité

Alt. 325 ft 35.95 °N, 79.02 °W | Updated 7 seconds ago

Clear
Ciel dégagé
73.6 ° F
Paraît 71 ° F
N
0.0
Vent Variable Vent de NNE
Gusts 0.0 mph

Aujourd'hui
Haut(e) -- | Bas -- ° F
--% Risque de précip.
Hier
Haut(e) -- | Bas -- ° F
Precip. -- pouce
6:48 AM 7:42 PM
Lune montante, 49% visible
Pression 30.04 pouce
Visibilité 10.0 Miles terrestres
Nuages Ciel dégagé
indice de chaleur 71 ° F
Point de rosée 71 ° F
Humidité 91%
Précipitations 0.00 pouce
Profondeur de la couche neigeuse Non disponible.
UV 0 sur 12
Pollen 9.40 sur 12
Ozone Bon
PM2.5 Moyen
Flu Activity Non disponible.
METAR KIGX 020856Z AUTO 00000KT 10SM CLR 23/20 A3006 RMK AO2 SLP170 T02330200 56004 TSNO

More Conditions Fewer Conditions

Pression 30.04 pouce
Visibilité 10.0 Miles terrestres
Nuages Ciel dégagé
indice de chaleur 71 ° F
Point de rosée 71 ° F
Humidité 91%
Précipitations 0.00 pouce
Profondeur de la couche neigeuse Non disponible.
UV 0 sur 12
Pollen 9.40 sur 12
Ozone Bon
PM2.5 Moyen
Flu Activity Non disponible.
METAR KIGX 020856Z AUTO 00000KT 10SM CLR 23/20 A3006 RMK AO2 SLP170 T02330200 56004 TSNO

More Conditions Fewer Conditions

10-Day Weather Forecast

Almanac

Astronomie

Sep. 02, 2014 Lever Coucher
Temps réel 06:48 EDT 19:42 EDT
Crépuscule civil 06:22 EDT 20:08 EDT
Crépuscule nautique 05:51 EDT 20:39 EDT
Crépuscule astronomique 05:19 EDT 21:11 EDT
Lune 14:17 EDT Pas de coucher de lune
Durée de lumière visible 13h 45m
Longueur du jour
12h 53m
Tomorrow will be 2m 12s shorter.
Lune montante, 49% of the Moon is Illuminated
Aujourd'hui
Lune montante
Sep 2
Premier quartier
Sep 8
Pleine lune
Sep 15
Dernier quartier
Sep 24
Nouveau

Extrêmes aujourd'hui

State Highs State Lows

Community

WunderPhotos

Upload Photos

1,749,587 Photos téléchargées !

WunderBlogs® & News

Nearby

Qualité de l'air

  Qualité de l'air Indice de la qualité de l'air Polluant
Hier Bon
PM2.5
Hier Bon
OZONE
Actuel Moyen
PM2.5
Actuel Bon
OZONE
mardi Bon
OZONE
mardi Bon
PM2.5
mercredi Bon
PM2.5
mercredi Bon
OZONE
jeudi Bon
PM2.5
jeudi Bon
OZONE

Épaisseur de neige

Station Depth Altitude
Pas de nouvelles chutes de neige

Activité sismique

Ville Distance Mag. Time & Date
No recent earthquake activity has been reported nearby.
Minimum magnitude displayed is 2.5.

Températures des eaux côtières

Lieu Température
Aucun rapport de station

Stations météo à proximité